Time;durP1;ratioP1;P1;durP2;ratioP2;P2;SDS_P1;SDS_P2;PMS_P1;PMS_P2;Temp;Humidity;BMP_temperature;BMP_pressure;BME280_temperature;BME280_humidity;BME280_pressure;Samples;Min_cycle;Max_cycle;Signal;HPM_P1;HPM_P2
2024/01/20 00:01:16;;;;;;;18.80;13.87;;;;;;;3.55;53.67;99912.31;6732406;29;20348;-82
2024/01/20 00:04:39;;;;;;;23.03;15.13;;;;;;;3.66;54.48;99916.72;6732296;29;20825;-82
2024/01/20 00:08:00;;;;;;;22.57;15.30;;;;;;;3.55;54.25;99915.00;6731987;29;20722;-81
2024/01/20 00:11:22;;;;;;;24.63;16.57;;;;;;;3.61;54.86;99918.97;6735810;29;20251;-81
2024/01/20 00:14:44;;;;;;;22.07;15.23;;;;;;;3.82;53.68;99915.25;6731377;29;20295;-81
2024/01/20 00:18:06;;;;;;;21.23;13.97;;;;;;;3.96;52.80;99890.81;6733390;29;20716;-82
2024/01/20 00:21:29;;;;;;;15.57;12.37;;;;;;;3.78;53.00;99884.47;6732652;29;20216;-82
2024/01/20 00:24:50;;;;;;;19.30;13.97;;;;;;;3.55;53.47;99867.00;6733329;29;20247;-81
2024/01/20 00:28:12;;;;;;;26.97;15.30;;;;;;;3.74;54.12;99891.06;6732239;29;20727;-81
2024/01/20 00:31:33;;;;;;;20.90;14.37;;;;;;;4.01;52.78;99901.94;6732924;29;20307;-81
2024/01/20 00:34:55;;;;;;;22.23;15.13;;;;;;;3.80;52.95;99906.53;6725361;29;20257;-81
2024/01/20 00:38:18;;;;;;;20.80;13.30;;;;;;;4.00;52.69;99913.59;6733196;29;20816;-81
2024/01/20 00:41:39;;;;;;;20.63;13.33;;;;;;;3.73;53.11;99912.53;6733422;29;20367;-81
2024/01/20 00:45:01;;;;;;;18.03;13.20;;;;;;;4.01;52.23;99907.28;6733397;29;20253;-80
2024/01/20 00:48:23;;;;;;;18.03;12.83;;;;;;;3.83;52.53;99918.75;6737672;29;20255;-82
2024/01/20 00:51:44;;;;;;;24.40;14.63;;;;;;;3.40;53.42;99899.50;6740764;29;20306;-81
2024/01/20 00:55:08;;;;;;;21.23;14.80;;;;;;;2.86;54.45;99910.41;6733428;29;20303;-82
2024/01/20 00:58:29;;;;;;;21.00;15.03;;;;;;;2.47;56.36;99910.22;6730520;29;20372;-82
2024/01/20 01:01:51;;;;;;;22.13;15.37;;;;;;;2.53;56.10;99913.25;6731232;29;20307;-82
2024/01/20 01:05:12;;;;;;;22.47;16.53;;;;;;;3.33;54.52;99914.31;6731144;29;20276;-81
2024/01/20 01:08:34;;;;;;;22.43;14.63;;;;;;;3.51;53.90;99904.72;6730592;29;20768;-82
2024/01/20 01:11:57;;;;;;;19.97;13.83;;;;;;;3.48;53.68;99921.00;6734314;29;20662;-84
2024/01/20 01:15:18;;;;;;;25.83;15.27;;;;;;;3.08;54.60;99923.56;6735772;29;20253;-81
2024/01/20 01:18:41;;;;;;;23.80;15.43;;;;;;;3.48;53.81;99919.16;6735046;29;20243;-82
2024/01/20 01:22:02;;;;;;;26.10;16.67;;;;;;;3.13;55.31;99928.53;6734071;29;20220;-82
2024/01/20 01:25:23;;;;;;;25.93;16.00;;;;;;;2.57;55.97;99928.00;6736120;29;20220;-82
2024/01/20 01:28:46;;;;;;;25.87;17.27;;;;;;;2.94;55.00;99925.72;6735309;29;20677;-81
2024/01/20 01:32:08;;;;;;;24.67;15.80;;;;;;;2.55;56.10;99931.75;6736616;29;20698;-81
2024/01/20 01:35:30;;;;;;;23.27;16.10;;;;;;;3.24;54.88;99939.13;6736806;29;20779;-82
2024/01/20 01:38:51;;;;;;;24.73;15.50;;;;;;;3.28;54.88;99932.53;6734925;29;20319;-82
2024/01/20 01:42:12;;;;;;;22.50;14.50;;;;;;;3.63;53.24;99938.31;6735872;29;20745;-81
2024/01/20 01:45:35;;;;;;;24.60;16.70;;;;;;;3.30;54.18;99950.09;6717149;29;20345;-81
2024/01/20 01:48:57;;;;;;;25.43;16.57;;;;;;;3.24;54.13;99965.78;6719412;29;20303;-80
2024/01/20 01:52:19;;;;;;;23.80;16.43;;;;;;;3.64;53.92;99969.34;6735708;29;20333;-81
2024/01/20 01:55:43;;;;;;;24.30;16.50;;;;;;;3.48;53.74;99963.66;6734247;29;20257;-81
2024/01/20 01:59:05;;;;;;;22.73;16.67;;;;;;;3.15;54.09;99951.41;6733465;29;20241;-82
2024/01/20 02:02:27;;;;;;;28.90;16.20;;;;;;;3.15;55.53;99954.06;6728745;29;20267;-82
2024/01/20 02:05:49;;;;;;;26.87;17.90;;;;;;;2.74;56.28;99942.56;6745000;29;20670;-81
2024/01/20 02:09:11;;;;;;;27.53;16.47;;;;;;;2.90;56.29;99938.47;6746436;29;20332;-80
2024/01/20 02:12:32;;;;;;;26.03;16.13;;;;;;;3.07;55.17;99943.22;6736815;29;20220;-80
2024/01/20 02:15:55;;;;;;;28.23;17.83;;;;;;;3.34;54.18;99950.66;6733954;29;20240;-81
2024/01/20 02:19:18;;;;;;;23.37;16.87;;;;;;;2.83;54.92;99955.13;6733031;29;20323;-82
2024/01/20 02:22:40;;;;;;;28.77;18.23;;;;;;;3.37;54.63;99947.75;6732424;29;20228;-81
2024/01/20 02:26:02;;;;;;;27.90;18.13;;;;;;;3.48;54.16;99945.00;6733170;29;20212;-81
2024/01/20 02:29:23;;;;;;;27.27;18.97;;;;;;;3.02;55.44;99934.75;6734513;29;20377;-81
2024/01/20 02:32:45;;;;;;;28.23;18.73;;;;;;;3.41;54.68;99941.16;6734278;29;20251;-81
2024/01/20 02:36:07;;;;;;;27.10;19.00;;;;;;;3.51;53.77;99942.91;6733040;29;20228;-81
2024/01/20 02:39:30;;;;;;;28.47;17.73;;;;;;;3.50;53.66;99925.22;6732447;29;20364;-81
2024/01/20 02:42:51;;;;;;;26.73;17.20;;;;;;;3.56;53.47;99939.84;6732462;29;20268;-81
2024/01/20 02:46:13;;;;;;;22.97;17.43;;;;;;;3.11;54.48;99934.00;6733050;29;20216;-83
2024/01/20 02:49:35;;;;;;;28.27;18.03;;;;;;;2.98;55.36;99957.31;6732915;29;20279;-81
2024/01/20 02:52:56;;;;;;;28.60;18.27;;;;;;;3.43;54.03;99958.72;6709989;29;20288;-81
2024/01/20 02:56:19;;;;;;;25.27;18.20;;;;;;;3.44;53.55;99951.56;6733362;29;20219;-82
2024/01/20 02:59:41;;;;;;;30.07;17.83;;;;;;;3.13;54.54;99966.66;6732209;29;20264;-81
2024/01/20 03:03:02;;;;;;;30.77;19.67;;;;;;;3.23;54.11;99972.06;6732786;29;20216;-81
2024/01/20 03:06:24;;;;;;;25.97;17.13;;;;;;;3.33;53.87;99971.16;6732604;29;20256;-81
2024/01/20 03:09:45;;;;;;;27.90;18.00;;;;;;;3.46;54.01;99966.47;6733026;29;20328;-81
2024/01/20 03:13:08;;;;;;;25.60;17.87;;;;;;;3.37;53.63;99967.22;6733253;29;20213;-80
2024/01/20 03:16:30;;;;;;;29.13;18.03;;;;;;;3.52;53.36;99922.41;6731657;29;20240;-81
2024/01/20 03:19:51;;;;;;;29.63;18.83;;;;;;;3.93;52.20;99976.50;6728197;29;20376;-81
2024/01/20 03:23:12;;;;;;;30.60;20.87;;;;;;;3.70;53.25;99966.13;6731777;29;20296;-81
2024/01/20 03:26:34;;;;;;;32.37;20.60;;;;;;;3.82;52.47;99957.91;6732508;29;20706;-81
2024/01/20 03:29:57;;;;;;;28.83;19.37;;;;;;;3.99;52.23;99965.28;6732432;29;20236;-81
2024/01/20 03:33:19;;;;;;;25.37;18.30;;;;;;;3.90;52.03;99965.25;6732036;29;20241;-83
2024/01/20 03:36:40;;;;;;;25.83;19.13;;;;;;;3.98;52.80;99971.59;6732551;29;20365;-82
2024/01/20 03:40:02;;;;;;;28.00;18.50;;;;;;;3.97;52.79;99959.25;6745165;29;20385;-85
2024/01/20 03:43:23;;;;;;;29.40;19.23;;;;;;;4.23;51.96;99976.44;6731438;29;20212;-82
2024/01/20 03:46:46;;;;;;;23.93;17.87;;;;;;;4.12;52.02;99978.41;6732020;29;20703;-82
2024/01/20 03:50:09;;;;;;;25.63;16.47;;;;;;;4.05;51.67;99974.56;6732268;29;20656;-82
2024/01/20 03:53:31;;;;;;;30.83;18.47;;;;;;;3.58;52.55;99978.72;6732021;29;20251;-81
2024/01/20 03:56:52;;;;;;;26.37;17.73;;;;;;;3.46;52.98;99966.47;6741051;29;20302;-82
2024/01/20 04:00:14;;;;;;;28.27;18.13;;;;;;;3.65;52.56;99961.22;6727757;29;20328;-81
2024/01/20 04:03:37;;;;;;;28.40;19.37;;;;;;;3.46;52.33;99981.59;6729362;29;20212;-83
2024/01/20 04:06:59;;;;;;;27.50;17.83;;;;;;;3.12;53.54;100007.59;6716251;29;20591;-82
2024/01/20 04:10:21;;;;;;;26.93;16.80;;;;;;;3.60;52.59;99991.94;6731612;29;20236;-83
2024/01/20 04:13:42;;;;;;;24.03;16.93;;;;;;;3.82;51.79;100002.41;6732022;29;20259;-81
2024/01/20 04:17:04;;;;;;;30.80;19.00;;;;;;;3.69;52.01;99999.13;6730911;29;20216;-83
2024/01/20 04:20:27;;;;;;;25.80;16.90;;;;;;;3.83;52.08;99996.13;6730481;29;20212;-82
2024/01/20 04:23:49;;;;;;;27.07;17.67;;;;;;;3.62;51.88;99993.50;6731422;29;20283;-82
2024/01/20 04:27:11;;;;;;;28.67;19.03;;;;;;;3.66;52.11;100005.56;6731277;29;20427;-82
2024/01/20 04:30:33;;;;;;;23.33;17.57;;;;;;;3.81;52.19;100012.25;6731920;29;20817;-83
2024/01/20 04:33:55;;;;;;;25.07;18.50;;;;;;;3.06;53.23;100013.44;6731618;29;20243;-82
2024/01/20 04:37:18;;;;;;;28.17;18.00;;;;;;;3.27;53.80;100021.47;6737622;29;20259;-82
2024/01/20 04:40:40;;;;;;;25.80;18.63;;;;;;;3.46;52.57;99989.59;6730720;29;20376;-83
2024/01/20 04:44:02;;;;;;;27.37;18.60;;;;;;;3.52;52.17;99995.25;6731279;29;20297;-82
2024/01/20 04:47:23;;;;;;;27.97;18.50;;;;;;;3.59;52.42;100006.25;6730249;29;20291;-82
2024/01/20 04:50:44;;;;;;;32.47;18.60;;;;;;;3.57;51.85;100026.84;6731655;29;20326;-82
2024/01/20 04:54:07;;;;;;;29.17;17.97;;;;;;;3.33;52.49;100035.13;6733903;29;20255;-81
2024/01/20 04:57:29;;;;;;;28.23;17.07;;;;;;;3.45;52.31;100035.88;6734604;29;20228;-83
2024/01/20 05:00:50;;;;;;;28.30;19.10;;;;;;;3.49;51.95;100035.50;6732268;29;20706;-82
2024/01/20 05:04:12;;;;;;;26.63;18.40;;;;;;;3.35;52.72;100029.63;6731756;29;20248;-81
2024/01/20 05:07:33;;;;;;;25.67;17.47;;;;;;;3.41;52.48;100023.78;6731574;29;20260;-82
2024/01/20 05:10:56;;;;;;;26.27;18.23;;;;;;;3.44;51.80;100034.19;6731829;29;20380;-82
2024/01/20 05:14:18;;;;;;;28.07;18.37;;;;;;;3.51;51.99;100025.56;6730835;29;20348;-82
2024/01/20 05:17:39;;;;;;;24.57;16.73;;;;;;;3.37;52.17;100030.38;6730448;29;20332;-81
2024/01/20 05:21:01;;;;;;;27.20;17.23;;;;;;;3.36;52.35;100036.69;6730896;29;20216;-79
2024/01/20 05:24:22;;;;;;;27.23;18.20;;;;;;;3.42;52.32;100020.19;6730566;29;20831;-80
2024/01/20 05:27:45;;;;;;;28.67;19.03;;;;;;;3.19;52.55;100032.75;6731886;29;20232;-80
2024/01/20 05:31:07;;;;;;;27.63;17.87;;;;;;;3.27;52.95;100040.97;6738311;29;20744;-81
2024/01/20 05:34:28;;;;;;;26.03;18.07;;;;;;;3.18;52.69;100039.06;6737678;29;20264;-81
2024/01/20 05:37:50;;;;;;;26.13;16.77;;;;;;;3.21;52.39;100053.97;6730784;29;20368;-81
2024/01/20 05:41:11;;;;;;;26.90;17.70;;;;;;;3.21;52.06;100046.81;6728796;29;20240;-82
2024/01/20 05:44:34;;;;;;;25.07;16.90;;;;;;;3.16;53.16;100062.34;6728947;29;20307;-82
2024/01/20 05:47:55;;;;;;;26.27;18.10;;;;;;;2.90;52.67;100050.31;6729343;29;20251;-81
2024/01/20 05:51:17;;;;;;;21.90;15.90;;;;;;;2.45;53.63;100069.22;6729804;29;20235;-82
2024/01/20 05:54:38;;;;;;;27.87;17.77;;;;;;;1.91;55.27;100069.16;6729981;29;20303;-82
2024/01/20 05:58:00;;;;;;;26.80;17.70;;;;;;;2.55;53.85;100073.66;6731733;29;20271;-82
2024/01/20 06:01:23;;;;;;;27.37;17.57;;;;;;;2.57;53.60;100078.88;6734323;29;20719;-81
2024/01/20 06:04:44;;;;;;;26.90;17.00;;;;;;;2.53;54.27;100082.75;6728032;29;20289;-81
2024/01/20 06:08:06;;;;;;;26.20;16.97;;;;;;;2.46;54.38;100082.41;6708280;29;20274;-81
2024/01/20 06:11:29;;;;;;;27.93;18.50;;;;;;;2.54;53.89;100087.13;6736573;29;20227;-80
2024/01/20 06:14:50;;;;;;;25.53;17.07;;;;;;;2.21;54.31;100100.44;6738071;29;20267;-79
2024/01/20 06:18:13;;;;;;;29.37;18.87;;;;;;;2.70;53.42;100100.88;6732093;29;20259;-80
2024/01/20 06:21:35;;;;;;;28.27;18.23;;;;;;;2.80;53.07;100099.16;6733509;29;20280;-80
2024/01/20 06:24:56;;;;;;;24.30;17.73;;;;;;;2.60;52.98;100075.97;6736030;29;20336;-80
2024/01/20 06:28:18;;;;;;;23.33;16.30;;;;;;;2.08;54.13;100105.88;6734436;29;20239;-81
2024/01/20 06:31:39;;;;;;;24.43;17.93;;;;;;;2.41;53.63;100113.88;6734819;29;20315;-80
2024/01/20 06:35:02;;;;;;;23.57;16.77;;;;;;;2.45;53.27;100099.34;6736312;29;20240;-81
2024/01/20 06:38:24;;;;;;;25.83;16.70;;;;;;;2.26;53.99;100109.75;6732697;29;20748;-80
2024/01/20 06:41:45;;;;;;;30.00;17.93;;;;;;;2.29;53.59;100106.00;6734631;29;20212;-80
2024/01/20 06:45:07;;;;;;;25.67;18.67;;;;;;;2.15;54.27;100119.56;6733877;29;20204;-80
2024/01/20 06:48:32;;;;;;;23.77;16.60;;;;;;;2.37;53.57;100114.25;6733023;29;20255;-80
2024/01/20 06:51:55;;;;;;;27.17;17.17;;;;;;;2.02;53.75;100126.81;6732698;29;20256;-80
2024/01/20 06:55:16;;;;;;;29.87;19.47;;;;;;;2.14;53.57;100129.34;6732684;29;20771;-81
2024/01/20 06:58:39;;;;;;;31.27;18.63;;;;;;;2.23;54.05;100138.41;6733264;29;20704;-80
2024/01/20 07:02:00;;;;;;;30.00;19.33;;;;;;;2.24;53.95;100150.78;6729267;29;20212;-82
2024/01/20 07:05:22;;;;;;;30.60;19.40;;;;;;;2.04;53.51;100138.16;6751238;29;20209;-81
2024/01/20 07:08:45;;;;;;;32.97;20.33;;;;;;;1.90;54.06;100123.25;6734772;29;20344;-80
2024/01/20 07:12:07;;;;;;;26.93;19.20;;;;;;;2.14;53.74;100134.66;6733373;29;20245;-79
2024/01/20 07:15:28;;;;;;;25.37;18.57;;;;;;;1.94;53.77;100145.16;6734213;29;20302;-81
2024/01/20 07:18:50;;;;;;;29.60;19.10;;;;;;;2.10;53.42;100150.97;6732632;29;20290;-80
2024/01/20 07:22:11;;;;;;;29.37;19.13;;;;;;;2.19;54.05;100161.75;6732866;29;20262;-81
2024/01/20 07:25:36;;;;;;;33.13;20.07;;;;;;;1.97;54.73;100166.19;6732865;29;20303;-82
2024/01/20 07:28:57;;;;;;;30.90;20.30;;;;;;;2.24;54.21;100166.75;6739557;29;20231;-82
2024/01/20 07:32:19;;;;;;;29.00;19.40;;;;;;;2.44;52.90;100166.00;6731461;29;20307;-82
2024/01/20 07:35:41;;;;;;;30.97;19.80;;;;;;;2.46;53.28;100172.03;6733190;29;20224;-82
2024/01/20 07:39:04;;;;;;;30.53;19.97;;;;;;;2.06;53.50;100186.78;6732437;29;20377;-82
2024/01/20 07:42:27;;;;;;;34.00;20.27;;;;;;;1.87;54.66;100187.34;6725514;29;20315;-81
2024/01/20 07:45:48;;;;;;;28.47;19.40;;;;;;;1.01;56.79;100179.72;6735924;29;20236;-82
2024/01/20 07:49:10;;;;;;;33.27;20.57;;;;;;;0.77;57.29;100200.06;6732069;29;20243;-81
2024/01/20 07:52:31;;;;;;;33.43;21.37;;;;;;;0.52;57.85;100192.19;6732920;29;20361;-81
2024/01/20 07:55:53;;;;;;;32.27;20.07;;;;;;;0.51;58.58;100209.06;6746790;29;20260;-82
2024/01/20 07:59:16;;;;;;;29.27;20.40;;;;;;;1.30;57.24;100194.38;6733277;29;20283;-81
2024/01/20 08:02:39;;;;;;;33.47;21.50;;;;;;;0.44;57.28;100205.16;6751876;29;20271;-81
2024/01/20 08:06:00;;;;;;;39.00;22.97;;;;;;;0.65;59.10;100203.59;6728795;29;20247;-81
2024/01/20 08:09:22;;;;;;;34.03;19.13;;;;;;;1.59;57.35;100203.69;6731004;29;20710;-82
2024/01/20 08:12:44;;;;;;;30.90;19.80;;;;;;;1.81;56.62;100206.41;6731304;29;20247;-81
2024/01/20 08:16:07;;;;;;;31.20;18.50;;;;;;;1.79;55.27;100196.88;6731228;29;20255;-81
2024/01/20 08:19:29;;;;;;;30.57;18.67;;;;;;;2.02;54.73;100199.44;6731769;29;20660;-84
2024/01/20 08:22:50;;;;;;;31.47;19.23;;;;;;;2.28;53.85;100198.28;6729975;29;20653;-81
2024/01/20 08:26:12;;;;;;;30.37;18.97;;;;;;;2.16;53.25;100209.88;6712086;29;20944;-81
2024/01/20 08:29:33;;;;;;;28.43;18.20;;;;;;;2.21;54.05;100209.53;6729862;29;20384;-81
2024/01/20 08:32:56;;;;;;;27.43;19.23;;;;;;;2.37;53.51;100192.25;6730516;29;20228;-83
2024/01/20 08:36:18;;;;;;;32.33;20.93;;;;;;;2.06;53.32;100214.22;6728277;29;20268;-81
2024/01/20 08:39:39;;;;;;;28.03;19.50;;;;;;;2.17;53.55;100198.28;6730796;29;20315;-82
2024/01/20 08:43:00;;;;;;;29.43;19.40;;;;;;;2.27;52.97;100203.72;6730335;29;20649;-82
2024/01/20 08:46:22;;;;;;;31.33;19.50;;;;;;;2.41;53.29;100217.66;6739177;29;20295;-81
2024/01/20 08:49:47;;;;;;;28.63;19.60;;;;;;;2.55;51.97;100217.41;6731267;29;20319;-81
2024/01/20 08:53:09;;;;;;;26.20;18.83;;;;;;;2.40;52.68;100229.28;6732091;29;20209;-83
2024/01/20 08:56:30;;;;;;;30.53;18.87;;;;;;;2.56;52.87;100244.91;6732207;29;20765;-81
2024/01/20 08:59:52;;;;;;;29.70;19.20;;;;;;;2.35;53.36;100239.44;6731498;29;20256;-81
2024/01/20 09:03:15;;;;;;;28.33;19.40;;;;;;;2.42;52.67;100242.47;6726524;29;20216;-82
2024/01/20 09:06:39;;;;;;;28.03;18.97;;;;;;;2.29;52.93;100253.22;6731181;29;20216;-82
2024/01/20 09:10:02;;;;;;;30.07;19.17;;;;;;;2.22;53.01;100253.78;6732227;29;20243;-81
2024/01/20 09:13:24;;;;;;;28.77;20.40;;;;;;;2.35;53.77;100263.38;6731666;29;20685;-81
2024/01/20 09:16:45;;;;;;;27.73;18.37;;;;;;;2.81;52.55;100272.16;6730797;29;20330;-82
2024/01/20 09:20:09;;;;;;;32.97;18.60;;;;;;;2.83;51.21;100278.19;6734183;29;20765;-83
2024/01/20 09:23:32;;;;;;;32.93;20.03;;;;;;;2.28;52.42;100271.94;6732734;29;20300;-82
2024/01/20 09:26:54;;;;;;;27.70;18.40;;;;;;;2.40;52.84;100284.31;6730869;29;20232;-84
2024/01/20 09:30:15;;;;;;;29.10;19.03;;;;;;;2.44;52.82;100260.03;6727497;29;20273;-83
2024/01/20 09:33:37;;;;;;;27.67;19.47;;;;;;;2.82;53.32;100278.31;6737268;29;20267;-82
2024/01/20 09:36:58;;;;;;;32.73;20.30;;;;;;;2.89;52.47;100277.69;6738210;29;20363;-83
2024/01/20 09:40:21;;;;;;;28.77;18.40;;;;;;;3.06;52.05;100261.22;6738963;29;20273;-86
2024/01/20 09:43:44;;;;;;;27.20;17.87;;;;;;;3.10;51.33;100277.81;6738895;29;20236;-83
2024/01/20 09:47:09;;;;;;;29.47;18.33;;;;;;;3.00;51.69;100290.16;6744497;29;20675;-82
2024/01/20 09:50:31;;;;;;;37.67;24.67;;;;;;;3.27;51.47;100270.19;6733474;29;20244;-83
2024/01/20 09:53:59;;;;;;;40.83;26.40;;;;;;;3.25;51.39;100287.25;6737671;29;20295;-88
2024/01/20 09:57:22;;;;;;;34.20;21.77;;;;;;;3.15;50.81;100284.50;6730957;29;20207;-84
2024/01/20 10:00:44;;;;;;;30.53;20.00;;;;;;;2.93;51.00;100300.47;6737711;29;20256;-83
2024/01/20 10:04:06;;;;;;;28.47;19.43;;;;;;;2.86;51.91;100293.94;6733915;29;20300;-81
2024/01/20 10:07:28;;;;;;;30.97;18.77;;;;;;;3.17;51.23;100306.53;6737026;29;20312;-84
2024/01/20 10:10:50;;;;;;;32.23;19.57;;;;;;;3.18;51.58;100308.22;6738322;29;20233;-83
2024/01/20 10:14:12;;;;;;;29.47;18.47;;;;;;;3.43;51.29;100315.94;6738749;29;20221;-82
2024/01/20 10:17:37;;;;;;;34.00;21.47;;;;;;;3.27;52.74;100302.16;6740326;29;20268;-82
2024/01/20 10:21:03;;;;;;;29.93;20.30;;;;;;;3.93;51.45;100288.66;6739532;29;20209;-82
2024/01/20 10:24:25;;;;;;;31.37;20.10;;;;;;;4.58;50.54;100294.63;6734691;29;20205;-83
2024/01/20 10:27:47;;;;;;;25.07;17.73;;;;;;;4.93;47.86;100283.53;6731653;29;20232;-82
2024/01/20 10:31:10;;;;;;;30.57;18.90;;;;;;;5.12;47.62;100276.47;6719856;29;20229;-84
2024/01/20 10:34:31;;;;;;;26.83;18.20;;;;;;;5.52;46.24;100277.28;6718114;29;20299;-84
2024/01/20 10:37:54;;;;;;;29.80;18.77;;;;;;;5.71;46.70;100257.75;6740322;29;20229;-83
2024/01/20 10:41:17;;;;;;;29.00;18.40;;;;;;;5.36;47.01;100274.28;6735831;29;20349;-86
2024/01/20 10:44:39;;;;;;;29.80;20.53;;;;;;;5.76;46.41;100282.25;6735594;29;20210;-82
2024/01/20 10:48:07;;;;;;;26.73;18.23;;;;;;;6.22;44.45;100277.09;6736061;29;21089;-81
2024/01/20 10:51:29;;;;;;;27.07;18.93;;;;;;;6.23;44.55;100279.63;6734308;29;20336;-81
2024/01/20 10:54:51;;;;;;;29.77;18.67;;;;;;;6.35;43.48;100262.41;6736683;29;20590;-83
2024/01/20 10:58:16;;;;;;;25.17;19.23;;;;;;;6.34;43.39;100246.47;6734783;29;20788;-82
2024/01/20 11:01:38;;;;;;;26.07;17.47;;;;;;;6.62;43.25;100248.25;6736497;29;20243;-82
2024/01/20 11:05:01;;;;;;;24.20;18.57;;;;;;;6.93;42.87;100255.06;6738570;29;20697;-83
2024/01/20 11:08:24;;;;;;;23.20;18.93;;;;;;;6.67;42.65;100256.72;6727717;29;20226;-82
2024/01/20 11:11:58;;;;;;;30.97;19.60;;;;;;;6.15;42.48;100252.72;6733937;29;20233;-81
2024/01/20 11:15:20;;;;;;;27.70;20.43;;;;;;;6.53;42.80;100258.00;6734936;29;20214;-84
2024/01/20 11:18:41;;;;;;;29.43;19.20;;;;;;;6.76;42.54;100256.69;6733894;29;20295;-82
2024/01/20 11:22:04;;;;;;;27.13;19.90;;;;;;;6.48;43.93;100254.09;6735003;29;20213;-83
2024/01/20 11:25:32;;;;;;;27.47;20.40;;;;;;;6.20;45.07;100249.63;6733481;29;20213;-84
2024/01/20 11:28:54;;;;;;;27.47;18.43;;;;;;;7.00;43.11;100240.06;6732485;29;20239;-81
2024/01/20 11:32:15;;;;;;;30.60;21.90;;;;;;;6.31;43.73;100236.91;6732929;29;20399;-82
2024/01/20 11:35:37;;;;;;;30.83;20.47;;;;;;;7.05;42.64;100233.28;6729827;29;20258;-84
2024/01/20 11:39:02;;;;;;;32.03;21.30;;;;;;;5.29;45.84;100248.22;6731744;29;20236;-80
2024/01/20 11:42:24;;;;;;;30.20;21.13;;;;;;;6.08;44.83;100240.88;6732595;29;20202;-81
2024/01/20 11:45:45;;;;;;;31.97;21.07;;;;;;;6.64;43.89;100230.19;6732192;29;20254;-81
2024/01/20 11:49:07;;;;;;;34.80;20.30;;;;;;;6.56;43.80;100212.19;6734039;29;20327;-82
2024/01/20 11:52:28;;;;;;;26.30;18.50;;;;;;;6.08;45.22;100186.50;6734447;29;20249;-82
2024/01/20 11:55:55;;;;;;;26.90;18.03;;;;;;;5.89;44.57;100197.22;6737710;29;20357;-80
2024/01/20 11:59:17;;;;;;;25.60;17.50;;;;;;;7.04;42.86;100191.38;6734959;29;20235;-83
2024/01/20 12:02:38;;;;;;;24.13;16.93;;;;;;;7.62;41.46;100192.72;6735016;29;20431;-82
2024/01/20 12:06:04;;;;;;;24.87;17.67;;;;;;;7.39;41.47;100140.47;6732580;29;20912;-82
2024/01/20 12:09:27;;;;;;;22.80;16.70;;;;;;;7.90;41.16;100169.31;6733488;29;20242;-80
2024/01/20 12:12:50;;;;;;;22.73;16.67;;;;;;;8.01;40.82;100153.78;6732360;29;20240;-79
2024/01/20 12:16:12;;;;;;;22.80;16.77;;;;;;;7.73;40.96;100159.41;6731827;29;20221;-82
2024/01/20 12:19:33;;;;;;;24.77;17.80;;;;;;;7.48;41.84;100149.47;6737133;29;20241;-81
2024/01/20 12:22:56;;;;;;;25.47;17.23;;;;;;;7.72;41.67;100152.38;6731717;29;20237;-79
2024/01/20 12:26:17;;;;;;;22.57;16.73;;;;;;;7.64;43.01;100130.78;6730994;29;20353;-80
2024/01/20 12:29:41;;;;;;;22.67;16.87;;;;;;;7.80;42.54;100139.84;6734267;29;20224;-81
2024/01/20 12:33:02;;;;;;;21.70;15.43;;;;;;;8.33;41.80;100124.50;6731720;29;20245;-84
2024/01/20 12:36:24;;;;;;;19.20;14.50;;;;;;;8.39;41.10;100112.25;6735470;29;20692;-82
2024/01/20 12:39:46;;;;;;;22.03;16.10;;;;;;;8.52;40.51;100120.72;6733097;29;20594;-81
2024/01/20 12:43:08;;;;;;;26.40;15.73;;;;;;;8.64;41.02;100098.78;6730176;29;20801;-80
2024/01/20 12:46:31;;;;;;;23.30;15.60;;;;;;;8.20;41.16;100102.56;6730738;29;20212;-81
2024/01/20 12:49:53;;;;;;;21.77;15.27;;;;;;;8.38;40.90;100089.91;6732659;29;20304;-80
2024/01/20 12:53:17;;;;;;;22.03;15.70;;;;;;;8.27;41.37;100074.06;6733022;29;20598;-83
2024/01/20 12:56:38;;;;;;;22.57;15.90;;;;;;;8.84;40.37;100076.00;6731101;29;20606;-81
2024/01/20 13:00:01;;;;;;;25.27;15.57;;;;;;;8.81;40.13;100087.09;6737772;29;20237;-81
2024/01/20 13:03:24;;;;;;;26.10;15.63;;;;;;;8.61;39.49;100092.88;6734057;29;20684;-81
2024/01/20 13:06:48;;;;;;;22.27;15.60;;;;;;;8.43;39.90;100094.81;6732784;29;20238;-82
2024/01/20 13:10:10;;;;;;;23.77;15.67;;;;;;;8.63;40.04;100083.66;6732193;29;20240;-84
2024/01/20 13:13:32;;;;;;;23.80;16.57;;;;;;;9.08;38.57;100074.22;6732485;29;20271;-82
2024/01/20 13:16:53;;;;;;;21.93;15.53;;;;;;;8.98;37.58;100081.56;6736412;29;20222;-81
2024/01/20 13:20:16;;;;;;;25.40;16.60;;;;;;;8.78;38.94;100079.31;6731502;29;20316;-81
2024/01/20 13:23:38;;;;;;;23.53;15.33;;;;;;;8.75;38.58;100084.19;6731092;29;20706;-79
2024/01/20 13:26:59;;;;;;;21.13;14.37;;;;;;;8.89;38.22;100078.22;6730274;29;20273;-82
2024/01/20 13:30:22;;;;;;;22.50;15.13;;;;;;;9.04;37.66;100070.16;6731265;29;20591;-81
2024/01/20 13:33:43;;;;;;;21.33;15.60;;;;;;;8.79;38.28;100062.19;6732508;29;20243;-88
2024/01/20 13:37:06;;;;;;;21.17;15.27;;;;;;;8.99;37.99;100058.22;6732399;29;20263;-81
2024/01/20 13:40:28;;;;;;;19.50;14.40;;;;;;;8.81;37.61;100064.72;6731188;29;20294;-82
2024/01/20 13:43:52;;;;;;;21.40;15.33;;;;;;;8.80;38.63;100052.28;6732407;29;20223;-82
2024/01/20 13:47:14;;;;;;;20.87;15.13;;;;;;;8.67;37.72;100028.53;6731298;29;20629;-82
2024/01/20 13:50:35;;;;;;;23.00;15.87;;;;;;;8.45;37.53;99996.03;6732810;29;20303;-82
2024/01/20 13:53:58;;;;;;;22.87;16.13;;;;;;;8.41;37.91;99983.94;6732459;29;20276;-82
2024/01/20 13:57:25;;;;;;;25.20;15.93;;;;;;;8.37;38.96;100042.53;6731596;29;20297;-80
2024/01/20 14:00:48;;;;;;;24.07;17.10;;;;;;;9.09;37.93;100058.94;6732285;29;20220;-82
2024/01/20 14:04:10;;;;;;;21.80;15.73;;;;;;;9.16;38.08;100062.63;6733003;29;20208;-82
2024/01/20 14:07:31;;;;;;;25.67;16.90;;;;;;;8.55;38.66;100061.28;6731204;29;20314;-83
2024/01/20 14:10:54;;;;;;;23.23;17.00;;;;;;;8.90;39.51;100075.34;6732089;29;20681;-82
2024/01/20 14:14:25;;;;;;;24.57;17.87;;;;;;;7.77;41.45;100086.47;6729962;29;20600;-82
2024/01/20 14:17:47;;;;;;;21.97;14.77;;;;;;;8.43;40.28;100065.25;6726991;29;20230;-82
2024/01/20 14:21:09;;;;;;;21.37;15.80;;;;;;;8.03;40.49;100063.16;6735965;29;20319;-82
2024/01/20 14:24:31;;;;;;;26.37;16.30;;;;;;;7.72;41.67;100086.06;6745401;29;20220;-82
2024/01/20 14:27:57;;;;;;;25.57;17.07;;;;;;;7.89;41.50;100090.56;6739657;29;20730;-82
2024/01/20 14:31:18;;;;;;;24.23;16.07;;;;;;;8.25;41.45;100076.06;6737136;29;20237;-81
2024/01/20 14:34:40;;;;;;;24.47;17.90;;;;;;;8.38;40.93;100083.69;6732864;29;20557;-81
2024/01/20 14:38:01;;;;;;;24.87;17.77;;;;;;;8.36;40.71;100070.41;6727632;29;20268;-82
2024/01/20 14:41:26;;;;;;;25.87;15.60;;;;;;;8.40;41.06;100087.91;6736038;29;20656;-82
2024/01/20 14:44:48;;;;;;;31.67;16.10;;;;;;;8.67;39.58;100076.94;6733555;29;20699;-81
2024/01/20 14:48:11;;;;;;;20.37;14.57;;;;;;;8.40;41.17;100069.09;6741365;29;20322;-82
2024/01/20 14:51:32;;;;;;;23.90;15.33;;;;;;;8.12;41.54;100045.22;6734070;29;20591;-82
2024/01/20 14:54:54;;;;;;;23.80;15.77;;;;;;;7.57;43.15;100073.38;6742153;29;20602;-82
2024/01/20 14:58:16;;;;;;;21.63;15.07;;;;;;;7.36;44.03;100073.69;6732305;29;20229;-81
2024/01/20 15:01:39;;;;;;;22.20;15.10;;;;;;;7.68;43.07;100073.13;6735459;29;20242;-82
2024/01/20 15:05:00;;;;;;;23.37;16.30;;;;;;;7.28;44.08;100080.81;6738071;29;20207;-82
2024/01/20 15:08:22;;;;;;;24.47;16.27;;;;;;;6.90;44.47;100051.63;6737182;29;20657;-82
2024/01/20 15:11:43;;;;;;;26.47;17.93;;;;;;;6.86;44.78;100063.63;6733046;29;20725;-82
2024/01/20 15:15:05;;;;;;;24.90;16.87;;;;;;;6.81;45.04;100073.97;6725615;29;20308;-82
2024/01/20 15:18:30;;;;;;;26.73;18.43;;;;;;;6.78;44.70;100064.38;6732374;29;20232;-82
2024/01/20 15:21:53;;;;;;;29.43;18.43;;;;;;;6.73;44.91;100058.63;6729976;29;20231;-82
2024/01/20 15:25:15;;;;;;;29.40;19.97;;;;;;;5.65;46.79;100034.41;6730328;29;20697;-81
2024/01/20 15:28:37;;;;;;;27.80;18.07;;;;;;;5.43;48.51;100082.03;6727019;29;20361;-85
2024/01/20 15:31:58;;;;;;;31.50;19.63;;;;;;;5.68;48.17;100054.69;6728148;29;20244;-81